メインページ
METAR-TAF:

METAR-TAF

空港 :

サーニア, オンタリオ州, カナダ

緯度: 43-00N, 経度: 082-19W, 海抜: 181m

現時点の気象観測

当レポートは54分前の11:00(UTC)に作成
北/北西の風 14kt、最大20ktの突風を伴う
気温 -8°C
湿度 62%
気圧 1025 hPa
視程: 14.5km
高度3000ftの曇り
小雪

METAR: CYZR 231100Z AUTO 33014G20KT 9SM -SN OVC030 M08/M14 A3027 RMK SLP261

時間: 06:54 (11:54 UTC)

予報

当レポートは3時間16分前の08:38(UTC)に作成
予報は23日の 09時(UTC)から 23日の 21時(UTC)まで有効
北西の風 10kt、最大20ktの突風を伴う
視程: 10km
高度3000ftの千切れ雲あり
23日の 09時(UTC)から 23日の 18時(UTC)まで一時的に
視程: 10km
弱いにわか雪
23日の 09時(UTC)から 23日の 11時(UTC)まで徐々に
北西の風 10kt
23日の 1800時(UTC)から
北西の風 8kt
視程: 10km
高度3000ftの雲は散在している
23日の 18時(UTC)から 23日の 21時(UTC)まで一時的に
高度3000ftの千切れ雲あり

TAF: CYZR 230838Z 2309/2321 31010G20KT P6SM BKN030 TEMPO 2309/2318 P6SM -SHSN BECMG 2309/2311 31010KT FM231800 31008KT P6SM SCT030 TEMPO 2318/2321 BKN030 RMK FCST BASED ON AUTO OBS. NXT FCST BY 231400Z

4,000以上の空港の気象観測と天気予報(METAR報とTAF報)

利用可能な観測所は地図上に黄色い丸と赤い丸で示す。

丸の上にカーソルを重ねると観測所名を参照できる。

次にクリックすると気象観測と天気予報を参照できる。

マップの切り替え:黒色「×」印の緑ボタンをクリックして拡大、「-」印の緑ボタンをクリックして縮小、緑色の三角印をクリックして隣りの地図に切り替え


METAR-TAF: